Keswick, IA

2:11 PM CDT on July 22, 2014 (GMT -0500)
Grinnell Regional (KGGI) Elev 1007 ft | 41.71 °N, 92.73 °W | Change Station
Active Advisory: Heat Advisory

Current weather conditions updated 16 minutes ago

Mostly Cloudy
Mostly Cloudy
82 °F
Feels Like 88 °F
N
5
Wind Variable Wind from WSW

Today is forecast to be Warmer than yesterday.

Today
High -- | Low -- °F
--% Chance of Precip.
Yesterday
High -- | Low -- °F
Precip. -- in
5:54 AM 8:36 PM
Waning Crescent, 15% visible
Pressure 30.01 in
Visibility 7.0 miles
Clouds Mostly Cloudy 1300 ft
Heat Index 88 °F
Dew Point 75 °F
Humidity 81%
Rainfall 0.00 in
Snow Depth Not available.
UV 6 out of 12
Pollen 6.00 out of 12
Air Quality Not available.
Flu Activity Sporadic
METAR KGGI 221855Z AUTO 25004KT 7SM BKN013 28/24 A3001 RMK AO2 T02750240

More Conditions Fewer Conditions

Pressure 30.01 in
Visibility 7.0 miles
Clouds Mostly Cloudy 1300 ft
Heat Index 88 °F
Dew Point 75 °F
Humidity 81%
Rainfall 0.00 in
Snow Depth Not available.
UV 6 out of 12
Pollen 6.00 out of 12
Air Quality Not available.
Flu Activity Sporadic
METAR KGGI 221855Z AUTO 25004KT 7SM BKN013 28/24 A3001 RMK AO2 T02750240

More Conditions Fewer Conditions

10-Day Weather Forecast

Almanac

Astronomy

Jul. 22, 2014 Rise Set
Actual Time 5:54 AM CDT 8:36 PM CDT
Civil Twilight 5:22 AM CDT 9:08 PM CDT
Nautical Twilight 4:41 AM CDT 9:48 PM CDT
Astronomical Twilight 3:55 AM CDT 10:34 PM CDT
Moon 2:28 AM CDT 5:13 PM CDT
Length of Visible Light 15h 46m
Length of Day
14h 41m
Tomorrow will be 1m 46s shorter.
Waning Crescent, 15% of the Moon is Illuminated
Today
Waning Crescent
Jul 26
New
Aug 3
First Quarter
Aug 10
Full
Aug 17
Last Quarter

Today's Extremes

State Highs State Lows

Community

WunderPhotos

Upload Photos

1,736,333 photos uploaded!

Nearby

Snow Depth

Station Depth Elevation
No new snow has been reported.

Earthquake Activity

City Distance Mag. Time & Date
No recent earthquake activity has been reported nearby.
Minimum magnitude displayed is 2.5.

Coastal Water Temperatures

Place Temperature
No Stations Reporting

Nearby Weather Stations

Station Location Temp. Heat Index Dew Point Humidity Wind Precip. Elev Updated Type
Dietze Weather Station, Millersburg, IA 89.1 °F 105 °F 79 °F 73% ESE  at  4.0 mph 0.00 in / hr 883 ft 2:11 PM CDT Rapid Fire
Williamsburg South, Williamsburg, IA 85.6 °F 99 °F 79 °F 80% East  at  2.7 mph 0.00 in / hr 879 ft 2:11 PM CDT Rapid Fire
Williamsburg, IA 85.3 °F 92 °F 73 °F 66% East  at  3.0 mph 0.00 in / hr 820 ft 2:11 PM CDT Rapid Fire
Oskaloosa, IA 84.1 °F 93 °F 76 °F 78% WNW  at  0.0 mph 0.00 in / hr 846 ft 2:10 PM CDT Rapid Fire

Show More Stations Show Fewer Stations